Time;durP1;ratioP1;P1;durP2;ratioP2;P2;SDS_P1;SDS_P2;PMS_P1;PMS_P2;Temp;Humidity;BMP_temperature;BMP_pressure;BME280_temperature;BME280_humidity;BME280_pressure;Samples;Min_cycle;Max_cycle;Signal;HPM_P1;HPM_P2
2023/09/01 00:01:13;;;;;;;11.63;4.63;;;;;;;13.82;100.00;101100.69;5046248;28;20398;-49
2023/09/01 00:03:39;;;;;;;9.40;4.45;;;;;;;13.81;100.00;101106.16;5049745;28;20406;-50
2023/09/01 00:06:11;;;;;;;11.95;5.22;;;;;;;13.76;100.00;101098.53;5043610;28;20021;-50
2023/09/01 00:08:36;;;;;;;10.73;4.72;;;;;;;13.78;100.00;101095.75;5046584;28;20044;-48
2023/09/01 00:11:02;;;;;;;11.52;5.00;;;;;;;13.77;100.00;101100.25;5046525;28;20028;-48
2023/09/01 00:13:27;;;;;;;10.90;4.63;;;;;;;13.74;100.00;101089.81;5054080;28;20032;-48
2023/09/01 00:15:52;;;;;;;14.18;4.97;;;;;;;13.73;100.00;101084.63;5052233;28;20124;-51
2023/09/01 00:18:17;;;;;;;10.95;4.75;;;;;;;13.70;100.00;101085.72;5050211;28;20061;-48
2023/09/01 00:20:43;;;;;;;12.27;5.35;;;;;;;13.67;100.00;101085.97;5050399;28;20446;-49
2023/09/01 00:23:08;;;;;;;12.95;4.65;;;;;;;13.69;100.00;101092.88;5054011;28;20113;-48
2023/09/01 00:25:33;;;;;;;13.05;4.60;;;;;;;13.67;100.00;101086.84;5049621;28;20108;-50
2023/09/01 00:27:59;;;;;;;11.43;5.07;;;;;;;13.68;100.00;101087.69;5038370;28;20035;-50
2023/09/01 00:30:28;;;;;;;11.57;5.07;;;;;;;13.64;100.00;101079.09;5046587;28;20102;-49
2023/09/01 00:32:53;;;;;;;11.52;5.05;;;;;;;13.68;100.00;101087.69;5045301;28;20029;-48
2023/09/01 00:35:19;;;;;;;10.50;4.95;;;;;;;13.66;100.00;101084.31;5047495;28;20021;-47
2023/09/01 00:37:44;;;;;;;11.40;4.90;;;;;;;13.63;100.00;101076.56;5049573;28;20054;-48
2023/09/01 00:40:10;;;;;;;11.00;4.82;;;;;;;13.66;100.00;101073.63;5046874;28;20032;-51
2023/09/01 00:42:35;;;;;;;11.35;5.00;;;;;;;13.64;100.00;101071.09;5051491;28;20461;-48
2023/09/01 00:45:00;;;;;;;7.65;4.45;;;;;;;13.63;100.00;101064.03;5053415;28;20096;-51
2023/09/01 00:47:26;;;;;;;13.02;5.40;;;;;;;13.62;100.00;101070.38;5049336;28;20041;-49
2023/09/01 00:49:51;;;;;;;10.90;4.57;;;;;;;13.59;100.00;101065.31;5045971;28;20071;-49
2023/09/01 00:52:17;;;;;;;10.23;4.65;;;;;;;13.56;100.00;101067.38;5048631;28;20066;-47
2023/09/01 00:54:42;;;;;;;11.82;4.70;;;;;;;13.58;100.00;101079.59;5042339;28;20028;-47
2023/09/01 00:57:08;;;;;;;13.15;4.85;;;;;;;13.58;100.00;101073.44;5046611;28;20035;-48
2023/09/01 00:59:34;;;;;;;11.65;4.50;;;;;;;13.55;100.00;101066.53;5048794;28;20032;-48
2023/09/01 01:02:00;;;;;;;9.40;4.65;;;;;;;13.55;100.00;101065.69;5051156;28;20082;-48
2023/09/01 01:04:25;;;;;;;11.18;4.72;;;;;;;13.55;100.00;101063.03;5047340;28;20033;-48
2023/09/01 01:06:57;;;;;;;7.85;4.63;;;;;;;13.57;100.00;101077.06;5045553;28;20032;-48
2023/09/01 01:09:34;;;;;;;8.85;4.40;;;;;;;13.56;100.00;101081.56;5044282;28;20430;-48
2023/09/01 01:12:14;;;;;;;8.65;4.53;;;;;;;13.55;100.00;101081.69;5047033;28;20037;-48
2023/09/01 01:14:45;;;;;;;11.50;4.57;;;;;;;13.50;100.00;101079.41;5052091;28;20517;-47
2023/09/01 01:17:12;;;;;;;11.07;5.25;;;;;;;13.55;100.00;101089.69;5047726;28;20029;-47
2023/09/01 01:19:56;;;;;;;8.82;4.65;;;;;;;13.55;100.00;101079.88;5048016;28;20060;-48
2023/09/01 01:22:47;;;;;;;9.80;4.55;;;;;;;13.58;100.00;101076.09;5051596;28;20029;-48
2023/09/01 01:25:12;;;;;;;10.15;4.75;;;;;;;13.54;100.00;101067.53;5046186;28;20021;-48
2023/09/01 01:27:40;;;;;;;8.45;4.45;;;;;;;13.55;100.00;101066.53;5047018;28;20033;-49
2023/09/01 01:30:07;;;;;;;7.93;4.55;;;;;;;13.55;100.00;101071.84;5056563;28;20021;-47
2023/09/01 01:32:32;;;;;;;10.48;4.13;;;;;;;13.53;100.00;101070.31;5055583;28;20050;-48
2023/09/01 01:35:16;;;;;;;10.77;5.05;;;;;;;13.52;100.00;101069.44;5050746;28;20116;-48
2023/09/01 01:37:56;;;;;;;11.50;5.22;;;;;;;13.50;100.00;101066.91;5053311;28;20033;-48
2023/09/01 01:40:24;;;;;;;7.13;4.75;;;;;;;13.52;100.00;101072.13;5055839;28;20568;-48
2023/09/01 01:42:51;;;;;;;12.32;4.47;;;;;;;13.48;100.00;101070.69;5052992;28;20190;-47
2023/09/01 01:45:21;;;;;;;8.88;4.38;;;;;;;13.49;100.00;101083.91;5054283;28;20049;-47
2023/09/01 01:47:50;;;;;;;8.05;4.53;;;;;;;13.52;100.00;101074.78;5047312;28;20020;-47
2023/09/01 01:50:16;;;;;;;12.65;5.72;;;;;;;13.54;100.00;101085.34;5047308;28;20033;-48
2023/09/01 01:52:42;;;;;;;10.98;5.13;;;;;;;13.53;100.00;101092.50;5051034;28;20489;-48
2023/09/01 01:55:07;;;;;;;8.82;4.85;;;;;;;13.56;100.00;101097.59;5051886;28;20116;-48
2023/09/01 01:57:33;;;;;;;10.40;4.63;;;;;;;13.56;100.00;101094.06;5046059;28;20021;-47
2023/09/01 01:59:59;;;;;;;9.85;4.80;;;;;;;13.56;100.00;101081.56;5050591;28;20029;-47
2023/09/01 02:02:24;;;;;;;12.00;4.80;;;;;;;13.57;100.00;101077.06;5046278;28;20416;-48
2023/09/01 02:04:50;;;;;;;8.48;4.78;;;;;;;13.57;100.00;101080.56;5054706;28;20036;-48
2023/09/01 02:07:16;;;;;;;12.02;5.25;;;;;;;13.58;100.00;101076.09;5057879;28;20020;-47
2023/09/01 02:09:41;;;;;;;9.25;5.00;;;;;;;13.55;100.00;101074.53;5053073;28;20039;-47
2023/09/01 02:12:07;;;;;;;11.95;5.45;;;;;;;13.56;100.00;101073.56;5045229;28;20360;-47
2023/09/01 02:14:36;;;;;;;9.63;5.22;;;;;;;13.56;100.00;101064.72;5051196;28;20107;-48
2023/09/01 02:17:03;;;;;;;8.57;4.90;;;;;;;13.56;100.00;101064.72;5052406;28;20474;-48
2023/09/01 02:19:28;;;;;;;9.35;5.25;;;;;;;13.55;100.00;101068.34;5049305;28;20021;-48
2023/09/01 02:21:54;;;;;;;12.50;5.72;;;;;;;13.55;100.00;101065.69;5053636;28;20031;-48
2023/09/01 02:24:19;;;;;;;9.93;5.15;;;;;;;13.57;100.00;101064.56;5049903;28;20032;-48
2023/09/01 02:26:44;;;;;;;11.70;5.35;;;;;;;13.57;100.00;101061.91;5037155;28;20032;-48
2023/09/01 02:29:10;;;;;;;10.38;5.38;;;;;;;13.60;100.00;101072.31;5041911;28;20094;-48
2023/09/01 02:31:35;;;;;;;11.07;5.55;;;;;;;13.61;100.00;101067.84;5048582;28;20035;-48
2023/09/01 02:34:00;;;;;;;10.23;4.93;;;;;;;13.61;100.00;101065.16;5048940;28;20025;-47
2023/09/01 02:36:31;;;;;;;13.93;5.63;;;;;;;13.60;100.00;101064.31;5043606;28;20021;-48
2023/09/01 02:38:57;;;;;;;9.27;5.35;;;;;;;13.61;100.00;101063.34;5052302;28;20378;-47
2023/09/01 02:41:23;;;;;;;10.70;5.60;;;;;;;13.62;100.00;101053.50;5052981;28;20036;-48
2023/09/01 02:43:49;;;;;;;14.80;5.57;;;;;;;13.60;100.00;101042.13;5046578;28;20060;-47
2023/09/01 02:46:14;;;;;;;11.05;5.63;;;;;;;13.60;100.00;101047.44;5052222;28;20102;-48
2023/09/01 02:48:39;;;;;;;9.95;5.50;;;;;;;13.58;100.00;101044.91;5047529;28;20494;-47
2023/09/01 02:51:06;;;;;;;9.75;5.45;;;;;;;13.59;100.00;101054.63;5047167;28;20032;-47
2023/09/01 02:53:32;;;;;;;9.90;5.40;;;;;;;13.59;100.00;101048.41;5046719;28;20026;-48
2023/09/01 02:55:57;;;;;;;11.65;5.88;;;;;;;13.60;100.00;101052.78;5047240;28;20028;-48
2023/09/01 02:58:24;;;;;;;9.95;5.78;;;;;;;13.57;100.00;101045.88;5053606;28;20386;-48
2023/09/01 03:00:50;;;;;;;10.07;5.38;;;;;;;13.61;100.00;101062.50;5043232;28;20108;-48
2023/09/01 03:03:15;;;;;;;8.35;5.70;;;;;;;13.61;100.00;101057.16;5050020;28;20534;-47
2023/09/01 03:05:40;;;;;;;10.82;5.50;;;;;;;13.63;100.00;101057.88;5049445;28;20443;-49
2023/09/01 03:08:05;;;;;;;8.20;4.88;;;;;;;13.61;100.00;101059.84;5047093;28;20438;-47
2023/09/01 03:10:32;;;;;;;10.90;5.18;;;;;;;13.60;100.00;101061.63;5045083;28;20025;-48
2023/09/01 03:12:57;;;;;;;10.20;5.80;;;;;;;13.62;100.00;101066.84;5054153;28;20109;-48
2023/09/01 03:15:22;;;;;;;9.75;5.35;;;;;;;13.63;100.00;101057.88;5046338;28;20068;-48
2023/09/01 03:17:48;;;;;;;12.70;5.88;;;;;;;13.63;100.00;101047.19;5049266;28;20021;-48
2023/09/01 03:20:14;;;;;;;14.38;6.55;;;;;;;13.65;100.00;101047.91;5047648;28;20467;-48
2023/09/01 03:22:40;;;;;;;13.73;6.00;;;;;;;13.66;100.00;101041.59;5048584;28;20029;-49
2023/09/01 03:25:09;;;;;;;8.82;5.32;;;;;;;13.68;100.00;101050.31;5052444;28;20029;-48
2023/09/01 03:27:39;;;;;;;9.10;5.38;;;;;;;13.68;100.00;101045.81;5048819;28;20422;-48
2023/09/01 03:30:08;;;;;;;9.32;5.07;;;;;;;13.70;100.00;101045.69;5053066;28;20030;-48
2023/09/01 03:32:33;;;;;;;8.70;4.75;;;;;;;13.73;100.00;101039.25;5047140;28;20040;-48
2023/09/01 03:35:02;;;;;;;11.23;5.57;;;;;;;13.74;100.00;101046.25;5038788;28;20033;-48
2023/09/01 03:37:28;;;;;;;12.95;5.20;;;;;;;13.73;100.00;101050.75;5048818;28;20100;-49
2023/09/01 03:39:53;;;;;;;13.80;5.88;;;;;;;13.75;100.00;101048.78;5044051;28;20120;-48
2023/09/01 03:42:18;;;;;;;12.50;6.00;;;;;;;13.74;100.00;101039.09;5047273;28;20356;-47
2023/09/01 03:44:44;;;;;;;14.88;6.07;;;;;;;13.76;100.00;101037.16;5043171;28;20032;-47
2023/09/01 03:47:10;;;;;;;9.45;5.50;;;;;;;13.77;100.00;101027.31;5051588;28;20021;-47
2023/09/01 03:49:35;;;;;;;7.75;5.07;;;;;;;13.76;100.00;101026.47;5053306;28;20489;-48
2023/09/01 03:52:01;;;;;;;8.20;5.50;;;;;;;13.78;100.00;101023.66;5052602;28;20103;-47
2023/09/01 03:54:27;;;;;;;9.02;5.13;;;;;;;13.78;100.00;101034.34;5046710;28;20395;-48
2023/09/01 03:56:52;;;;;;;12.77;5.95;;;;;;;13.80;100.00;101037.72;5056799;28;20062;-48
2023/09/01 03:59:19;;;;;;;10.15;6.13;;;;;;;13.77;100.00;101029.97;5043956;28;20029;-48
2023/09/01 04:01:44;;;;;;;10.18;5.60;;;;;;;13.77;100.00;101022.81;5052820;28;20033;-48
2023/09/01 04:04:11;;;;;;;10.20;5.28;;;;;;;13.80;100.00;101030.53;5044742;28;20023;-48
2023/09/01 04:06:37;;;;;;;9.15;5.88;;;;;;;13.80;100.00;101033.22;5043817;28;20041;-48
2023/09/01 04:09:03;;;;;;;11.98;6.07;;;;;;;13.82;100.00;101036.63;5045768;28;20032;-48
2023/09/01 04:11:29;;;;;;;11.57;5.72;;;;;;;13.80;100.00;101033.22;5048963;28;20108;-48
2023/09/01 04:13:55;;;;;;;13.05;5.85;;;;;;;13.81;100.00;101026.06;5044781;28;20104;-48
2023/09/01 04:16:21;;;;;;;10.18;5.97;;;;;;;13.81;100.00;101028.75;5042438;28;20029;-48
2023/09/01 04:18:47;;;;;;;9.02;5.90;;;;;;;13.82;100.00;101030.41;5041007;28;20399;-48
2023/09/01 04:21:13;;;;;;;9.93;5.70;;;;;;;13.82;100.00;101023.28;5037788;28;20017;-48
2023/09/01 04:23:40;;;;;;;7.95;5.38;;;;;;;13.82;100.00;101020.59;5043264;28;20036;-48
2023/09/01 04:26:05;;;;;;;11.52;5.55;;;;;;;13.84;100.00;101031.16;5040749;28;20029;-50
2023/09/01 04:28:31;;;;;;;12.35;5.95;;;;;;;13.84;100.00;101025.81;5052862;28;20029;-48
2023/09/01 04:30:59;;;;;;;9.23;5.93;;;;;;;13.84;100.00;101025.81;5052049;28;20501;-49
2023/09/01 04:33:26;;;;;;;9.57;5.72;;;;;;;13.84;100.00;101015.97;5047008;28;20032;-49
2023/09/01 04:36:03;;;;;;;8.57;5.72;;;;;;;13.87;100.00;101006.81;5041640;28;20029;-49
2023/09/01 04:38:29;;;;;;;9.95;5.57;;;;;;;13.86;100.00;101013.16;5044251;28;20452;-49
2023/09/01 04:40:59;;;;;;;11.77;6.43;;;;;;;13.85;100.00;101014.97;5045330;28;20037;-48
2023/09/01 04:43:26;;;;;;;13.45;6.00;;;;;;;13.84;100.00;101015.97;5047160;28;20037;-51
2023/09/01 04:45:56;;;;;;;10.23;5.68;;;;;;;13.85;100.00;101017.63;5045236;28;20041;-48
2023/09/01 04:48:21;;;;;;;8.52;5.68;;;;;;;13.86;100.00;101014.00;5046883;28;20068;-48
2023/09/01 04:50:47;;;;;;;7.45;5.80;;;;;;;13.90;100.00;101019.06;5056708;28;20111;-48
2023/09/01 04:53:13;;;;;;;13.00;5.70;;;;;;;13.90;100.00;101029.75;5049449;28;20078;-48
2023/09/01 04:55:38;;;;;;;9.25;5.80;;;;;;;13.90;100.00;101035.94;5051146;28;20025;-47
2023/09/01 04:58:03;;;;;;;8.93;5.47;;;;;;;13.91;100.00;101042.97;5045270;28;20494;-48
2023/09/01 05:00:29;;;;;;;10.38;6.22;;;;;;;13.92;100.00;101036.63;5043129;28;20026;-48
2023/09/01 05:02:54;;;;;;;10.30;5.95;;;;;;;13.92;100.00;101025.94;5046027;28;20104;-47
2023/09/01 05:05:20;;;;;;;11.40;5.78;;;;;;;13.92;100.00;101017.09;5041263;28;20037;-48
2023/09/01 05:07:45;;;;;;;9.68;6.03;;;;;;;13.92;100.00;101025.13;5049360;28;20028;-48
2023/09/01 05:10:11;;;;;;;9.93;5.60;;;;;;;13.95;100.00;101024.84;5052582;28;20025;-48
2023/09/01 05:12:36;;;;;;;8.32;5.65;;;;;;;13.95;100.00;101031.03;5051429;28;20131;-48
2023/09/01 05:15:03;;;;;;;9.68;5.68;;;;;;;13.96;100.00;101029.22;5046326;28;20029;-47
2023/09/01 05:17:29;;;;;;;9.98;6.15;;;;;;;13.98;100.00;101020.06;5047402;28;20024;-48
2023/09/01 05:19:54;;;;;;;8.25;5.80;;;;;;;14.00;100.00;101022.63;5045561;28;21400;-48
2023/09/01 05:22:20;;;;;;;9.80;6.00;;;;;;;14.01;100.00;101024.31;5049166;28;20021;-47
2023/09/01 05:24:47;;;;;;;12.52;6.43;;;;;;;14.02;100.00;101024.19;5050939;28;20057;-48
2023/09/01 05:27:12;;;;;;;12.52;6.10;;;;;;;14.03;100.00;101023.19;5045330;28;20103;-47
2023/09/01 05:29:38;;;;;;;10.48;6.05;;;;;;;14.06;100.00;101030.94;5050672;28;20444;-48
2023/09/01 05:32:03;;;;;;;11.20;6.28;;;;;;;14.08;100.00;101030.78;5052416;28;20017;-47
2023/09/01 05:34:28;;;;;;;9.50;5.68;;;;;;;14.11;100.00;101035.03;5042416;28;20102;-49
2023/09/01 05:36:56;;;;;;;10.35;5.97;;;;;;;14.10;100.00;101036.84;5046856;28;20023;-47
2023/09/01 05:39:21;;;;;;;12.13;6.18;;;;;;;14.12;100.00;101037.56;5045241;28;20467;-48
2023/09/01 05:41:47;;;;;;;11.68;5.97;;;;;;;14.14;100.00;101038.28;5049926;28;20035;-48
2023/09/01 05:44:12;;;;;;;8.90;5.55;;;;;;;14.16;100.00;101038.13;5049642;28;20124;-47
2023/09/01 05:46:37;;;;;;;9.43;6.30;;;;;;;14.19;100.00;101037.88;5043152;28;20117;-47
2023/09/01 05:49:02;;;;;;;9.07;5.73;;;;;;;14.21;100.00;101041.25;5041503;28;20017;-48
2023/09/01 05:51:28;;;;;;;13.13;6.20;;;;;;;14.22;100.00;101040.25;5039162;28;20310;-48
2023/09/01 05:53:53;;;;;;;12.55;6.68;;;;;;;14.25;100.00;101034.63;5047027;28;20483;-48
2023/09/01 05:56:18;;;;;;;12.13;6.32;;;;;;;14.27;100.00;101032.66;5042425;28;20025;-48
2023/09/01 05:58:44;;;;;;;10.73;6.65;;;;;;;14.28;100.00;101033.53;5042334;28;20088;-48
2023/09/01 06:01:09;;;;;;;11.05;6.22;;;;;;;14.29;100.00;101022.72;5047472;28;20025;-48
2023/09/01 06:03:34;;;;;;;11.65;7.40;;;;;;;14.31;100.00;101026.06;5039169;28;20025;-47
2023/09/01 06:06:00;;;;;;;13.23;7.32;;;;;;;14.34;100.00;101025.81;5046040;28;20458;-47
2023/09/01 06:08:25;;;;;;;11.93;6.97;;;;;;;14.37;100.00;101032.69;5052458;28;20029;-49
2023/09/01 06:10:50;;;;;;;13.85;7.00;;;;;;;14.40;100.00;101035.91;5042293;28;20029;-48
2023/09/01 06:13:16;;;;;;;12.82;7.60;;;;;;;14.40;100.00;101030.56;5051066;28;20117;-47
2023/09/01 06:15:41;;;;;;;12.43;7.95;;;;;;;14.40;100.00;101027.91;5049357;28;20116;-48
2023/09/01 06:18:06;;;;;;;14.90;8.00;;;;;;;14.42;100.00;101030.44;5048773;28;20087;-48
2023/09/01 06:20:32;;;;;;;17.63;8.60;;;;;;;14.42;100.00;101031.31;5057499;28;20076;-48
2023/09/01 06:22:57;;;;;;;12.10;7.93;;;;;;;14.46;100.00;101041.72;5053833;28;20049;-48
2023/09/01 06:25:22;;;;;;;17.33;8.10;;;;;;;14.48;100.00;101042.44;5045338;28;20383;-47
2023/09/01 06:27:48;;;;;;;13.15;8.20;;;;;;;14.51;100.00;101042.16;5050679;28;20033;-48
2023/09/01 06:30:13;;;;;;;14.55;8.18;;;;;;;14.52;100.00;101047.38;5036695;28;20029;-48
2023/09/01 06:32:38;;;;;;;19.45;8.80;;;;;;;14.51;100.00;101048.34;5043179;28;20029;-47
2023/09/01 06:35:04;;;;;;;13.32;8.45;;;;;;;14.51;100.00;101043.00;5040505;28;20045;-47
2023/09/01 06:37:29;;;;;;;16.17;9.00;;;;;;;14.53;100.00;101043.69;5047089;28;20487;-48
2023/09/01 06:39:55;;;;;;;14.93;9.00;;;;;;;14.56;100.00;101045.25;5043045;28;20433;-47
2023/09/01 06:42:20;;;;;;;13.80;8.85;;;;;;;14.57;100.00;101049.59;5049850;28;20036;-48
2023/09/01 06:44:46;;;;;;;16.63;9.43;;;;;;;14.59;100.00;101055.72;5054501;28;20025;-49
2023/09/01 06:47:11;;;;;;;14.13;8.85;;;;;;;14.63;100.00;101058.94;5049571;28;20028;-47
2023/09/01 06:49:36;;;;;;;15.50;9.23;;;;;;;14.67;100.00;101053.19;5049309;28;20440;-48
2023/09/01 06:52:02;;;;;;;14.95;9.25;;;;;;;14.69;100.00;101047.66;5046696;28;20116;-48
2023/09/01 06:54:27;;;;;;;15.95;9.30;;;;;;;14.69;100.00;101048.53;5041647;28;20025;-47
2023/09/01 06:56:53;;;;;;;15.20;9.65;;;;;;;14.69;100.00;101047.66;5048601;28;20395;-49
2023/09/01 06:59:18;;;;;;;15.05;9.20;;;;;;;14.72;100.00;101047.41;5044899;28;20474;-49
2023/09/01 07:01:43;;;;;;;15.88;9.45;;;;;;;14.75;100.00;101042.59;5046106;28;20033;-50
2023/09/01 07:04:09;;;;;;;14.90;9.70;;;;;;;14.76;100.00;101033.63;5031773;28;20425;-49
2023/09/01 07:06:34;;;;;;;17.15;9.98;;;;;;;14.77;100.00;101035.31;5034896;28;20068;-49
2023/09/01 07:09:00;;;;;;;20.38;10.27;;;;;;;14.78;100.00;101030.81;5038483;28;20491;-49
2023/09/01 07:11:25;;;;;;;13.65;9.93;;;;;;;14.82;100.00;101028.69;5046501;28;20539;-47
2023/09/01 07:13:50;;;;;;;13.57;9.77;;;;;;;14.84;100.00;101022.22;5045934;28;20036;-48
2023/09/01 07:16:16;;;;;;;15.63;9.80;;;;;;;14.88;100.00;101028.97;5044851;28;20028;-48
2023/09/01 07:18:41;;;;;;;16.35;9.90;;;;;;;14.88;100.00;101020.09;5050266;28;20033;-48
2023/09/01 07:21:06;;;;;;;16.55;10.48;;;;;;;14.88;100.00;101034.31;5043710;28;20076;-48
2023/09/01 07:23:32;;;;;;;13.65;10.20;;;;;;;14.90;100.00;101034.19;5043973;28;20101;-49
2023/09/01 07:25:59;;;;;;;17.83;10.70;;;;;;;14.89;100.00;101033.34;5041105;28;20478;-49
2023/09/01 07:28:24;;;;;;;15.32;10.75;;;;;;;14.90;100.00;101032.34;5020567;28;20029;-46
2023/09/01 07:30:50;;;;;;;14.82;10.27;;;;;;;14.89;100.00;101033.34;5044491;28;20100;-47
2023/09/01 07:33:16;;;;;;;17.02;11.65;;;;;;;14.91;100.00;101034.03;5043637;28;20037;-48
2023/09/01 07:35:46;;;;;;;12.32;10.52;;;;;;;14.92;100.00;101025.03;5043410;28;20017;-48
2023/09/01 07:38:11;;;;;;;13.65;11.15;;;;;;;14.95;100.00;101023.91;5037147;28;20025;-47
2023/09/01 07:40:37;;;;;;;15.77;10.48;;;;;;;14.96;100.00;101023.75;5047019;28;20040;-47
2023/09/01 07:43:02;;;;;;;16.17;11.13;;;;;;;14.99;100.00;101028.00;5050742;28;20057;-48
2023/09/01 07:45:28;;;;;;;17.90;10.93;;;;;;;14.98;100.00;101024.44;5040063;28;20028;-47
2023/09/01 07:47:54;;;;;;;15.70;11.13;;;;;;;15.00;100.00;101024.31;5046526;28;20383;-46
2023/09/01 07:50:23;;;;;;;14.90;10.82;;;;;;;15.03;100.00;101028.56;5042575;28;20036;-47
2023/09/01 07:52:48;;;;;;;16.20;10.98;;;;;;;15.04;100.00;101027.53;5038666;28;20036;-47
2023/09/01 07:55:13;;;;;;;15.18;11.13;;;;;;;15.05;100.00;101027.41;5042820;28;20029;-47
2023/09/01 07:57:39;;;;;;;15.43;11.95;;;;;;;15.03;100.00;101029.38;5043327;28;20128;-48
2023/09/01 08:00:07;;;;;;;15.75;11.30;;;;;;;15.03;100.00;101028.56;5043634;28;20029;-47
2023/09/01 08:02:32;;;;;;;15.30;11.25;;;;;;;15.04;100.00;101035.56;5039691;28;20025;-47
2023/09/01 08:04:58;;;;;;;15.70;11.10;;;;;;;15.04;100.00;101039.13;5047084;28;20428;-47
2023/09/01 08:07:23;;;;;;;16.90;11.10;;;;;;;15.03;100.00;101033.91;5052036;28;20039;-48
2023/09/01 08:09:48;;;;;;;14.73;10.88;;;;;;;15.01;100.00;101044.75;5038797;28;20024;-47
2023/09/01 08:12:14;;;;;;;13.02;10.50;;;;;;;15.05;100.00;101047.97;5044962;28;20050;-47
2023/09/01 08:14:39;;;;;;;15.05;10.32;;;;;;;15.05;100.00;101050.66;5049951;28;20561;-47
2023/09/01 08:17:04;;;;;;;13.37;10.17;;;;;;;15.07;100.00;101048.66;5041934;28;20318;-47
2023/09/01 08:19:30;;;;;;;12.43;10.25;;;;;;;15.08;100.00;101053.03;5045857;28;20779;-47
2023/09/01 08:21:56;;;;;;;12.80;10.52;;;;;;;15.12;100.00;101059.78;5048402;28;20032;-47
2023/09/01 08:24:21;;;;;;;12.73;11.18;;;;;;;15.12;100.00;101055.28;5046959;28;20025;-47
2023/09/01 08:26:48;;;;;;;16.10;11.48;;;;;;;15.15;100.00;101055.03;5046466;28;20108;-46
2023/09/01 08:29:14;;;;;;;14.00;10.32;;;;;;;15.17;100.00;101057.53;5038570;28;20060;-47
2023/09/01 08:31:40;;;;;;;11.27;9.93;;;;;;;15.16;100.00;101054.00;5037106;28;20034;-47
2023/09/01 08:34:10;;;;;;;12.15;10.85;;;;;;;15.18;100.00;101056.53;5040273;28;20033;-48
2023/09/01 08:36:36;;;;;;;13.30;11.15;;;;;;;15.15;100.00;101063.03;5042635;28;20495;-48
2023/09/01 08:39:02;;;;;;;11.55;9.98;;;;;;;15.17;100.00;101068.22;5039266;28;20048;-47
2023/09/01 08:41:28;;;;;;;13.20;10.90;;;;;;;15.17;100.00;101068.22;5042547;28;20047;-47
2023/09/01 08:44:00;;;;;;;12.73;10.63;;;;;;;15.18;100.00;101069.94;5043402;28;20481;-47
2023/09/01 08:46:27;;;;;;;12.88;10.85;;;;;;;15.22;100.00;101075.84;5042403;28;20022;-47
2023/09/01 08:48:53;;;;;;;12.90;10.48;;;;;;;15.24;100.00;101085.41;5047915;28;20036;-47
2023/09/01 08:51:20;;;;;;;12.77;10.35;;;;;;;15.24;100.00;101090.78;5046704;28;20028;-47
2023/09/01 08:53:46;;;;;;;12.63;10.32;;;;;;;15.25;100.00;101091.59;5047291;28;20474;-48
2023/09/01 08:56:11;;;;;;;11.15;9.98;;;;;;;15.26;100.00;101086.13;5047200;28;20111;-48
2023/09/01 08:58:37;;;;;;;11.40;10.18;;;;;;;15.27;100.00;101084.28;5053965;28;20032;-48
2023/09/01 09:01:03;;;;;;;10.90;9.60;;;;;;;15.29;100.00;101085.00;5043781;28;20134;-48
2023/09/01 09:03:29;;;;;;;12.45;10.10;;;;;;;15.30;100.00;101084.00;5049853;28;20557;-47
2023/09/01 09:05:55;;;;;;;12.02;10.70;;;;;;;15.30;100.00;101089.34;5039955;28;20029;-48
2023/09/01 09:08:20;;;;;;;11.38;10.18;;;;;;;15.30;100.00;101090.19;5047801;28;20040;-48
2023/09/01 09:10:49;;;;;;;13.63;11.00;;;;;;;15.32;100.00;101095.38;5043211;28;20086;-48
2023/09/01 09:13:28;;;;;;;12.40;10.95;;;;;;;15.31;100.00;101096.41;5043169;28;20079;-47
2023/09/01 09:16:15;;;;;;;13.05;10.77;;;;;;;15.31;100.00;101089.22;5043828;28;20021;-47
2023/09/01 09:18:42;;;;;;;12.25;10.65;;;;;;;15.32;100.00;101092.72;5034349;28;20428;-47
2023/09/01 09:21:28;;;;;;;12.48;10.27;;;;;;;15.34;100.00;101091.59;5034995;28;20117;-47
2023/09/01 09:23:58;;;;;;;11.07;9.98;;;;;;;15.30;100.00;101081.31;5047219;28;20493;-48
2023/09/01 09:26:28;;;;;;;11.15;10.05;;;;;;;15.34;100.00;101096.13;5039151;28;20032;-48
2023/09/01 09:28:53;;;;;;;10.02;9.13;;;;;;;15.34;100.00;101090.78;5036956;28;20380;-49
2023/09/01 09:31:36;;;;;;;10.00;8.68;;;;;;;15.34;100.00;101096.97;5038642;28;20025;-48
2023/09/01 09:34:34;;;;;;;8.90;8.07;;;;;;;15.40;100.00;101100.88;5037955;28;20026;-50
2023/09/01 09:37:00;;;;;;;9.48;8.05;;;;;;;15.38;100.00;101100.19;5049107;28;20097;-48
2023/09/01 09:39:27;;;;;;;10.38;8.30;;;;;;;15.34;100.00;101096.13;5046416;28;20421;-48
2023/09/01 09:41:54;;;;;;;8.70;7.90;;;;;;;15.45;100.00;101108.50;5044928;28;20044;-48
2023/09/01 09:44:25;;;;;;;9.90;7.85;;;;;;;15.47;100.00;101110.06;5054643;28;20124;-49
2023/09/01 09:46:51;;;;;;;8.00;7.20;;;;;;;15.52;100.00;101118.50;5047649;28;20078;-48
2023/09/01 09:49:18;;;;;;;7.43;6.75;;;;;;;15.53;100.00;101112.13;5046504;28;20486;-49
2023/09/01 09:51:48;;;;;;;7.60;6.88;;;;;;;15.52;100.00;101118.50;5048755;28;20036;-49
2023/09/01 09:54:16;;;;;;;8.00;6.85;;;;;;;15.55;100.00;101106.63;5050540;28;20402;-49
2023/09/01 09:56:42;;;;;;;7.72;6.93;;;;;;;15.60;100.00;101109.72;5062093;28;20040;-49
2023/09/01 09:59:15;;;;;;;9.13;6.55;;;;;;;15.59;100.00;101107.19;5045040;28;20030;-48
2023/09/01 10:01:43;;;;;;;6.47;5.80;;;;;;;15.59;100.00;101099.16;5049368;28;20033;-49
2023/09/01 10:04:09;;;;;;;6.27;5.67;;;;;;;15.62;100.00;101090.84;5048467;28;20020;-50
2023/09/01 10:06:35;;;;;;;6.75;5.88;;;;;;;15.66;100.00;101090.41;5050019;28;20844;-48
2023/09/01 10:09:04;;;;;;;5.93;5.32;;;;;;;15.65;100.00;101086.03;5045988;28;20018;-48
2023/09/01 10:11:29;;;;;;;5.85;5.35;;;;;;;15.69;100.00;101086.63;5048763;28;20024;-49
2023/09/01 10:13:56;;;;;;;5.95;5.40;;;;;;;15.69;100.00;101094.66;5044462;28;20036;-47
2023/09/01 10:16:23;;;;;;;5.47;4.97;;;;;;;15.72;100.00;101088.97;5051356;28;20025;-51
2023/09/01 10:18:49;;;;;;;5.05;4.65;;;;;;;15.72;100.00;101089.84;5050675;28;20434;-48
2023/09/01 10:21:16;;;;;;;5.38;4.80;;;;;;;15.75;100.00;101093.22;5040560;28;20391;-49
2023/09/01 10:23:44;;;;;;;5.75;4.82;;;;;;;15.77;100.00;101093.94;5045272;28;20068;-47
2023/09/01 10:26:28;;;;;;;5.38;4.88;;;;;;;15.78;100.00;101099.16;5052966;28;20040;-48
2023/09/01 10:28:59;;;;;;;5.25;4.85;;;;;;;15.83;100.00;101096.88;5053325;28;20025;-48
2023/09/01 10:31:24;;;;;;;5.35;4.85;;;;;;;15.85;100.00;101102.09;5045981;28;20029;-48
2023/09/01 10:34:05;;;;;;;5.50;5.00;;;;;;;15.88;100.00;101099.13;5053529;28;20101;-48
2023/09/01 10:36:31;;;;;;;5.93;5.32;;;;;;;15.91;100.00;101098.84;5040495;28;20480;-49
2023/09/01 10:39:03;;;;;;;6.50;4.75;;;;;;;15.94;100.00;101098.53;5046094;28;20032;-49
2023/09/01 10:41:50;;;;;;;5.30;4.75;;;;;;;16.00;100.00;101105.16;5041053;28;20029;-49
2023/09/01 10:44:15;;;;;;;5.47;4.78;;;;;;;16.04;100.00;101110.06;5042524;28;20045;-49
2023/09/01 10:46:40;;;;;;;6.07;4.85;;;;;;;16.08;100.00;101108.78;5044153;28;20029;-48
2023/09/01 10:49:07;;;;;;;4.75;4.35;;;;;;;16.15;100.00;101118.91;5048417;28;20028;-48
2023/09/01 10:51:34;;;;;;;5.78;4.38;;;;;;;16.21;100.00;101121.00;5039967;28;20116;-47
2023/09/01 10:54:00;;;;;;;4.88;4.45;;;;;;;16.26;100.00;101118.72;5042112;28;20053;-51
2023/09/01 10:56:27;;;;;;;6.88;4.32;;;;;;;16.32;100.00;101126.19;5046854;28;20694;-48
2023/09/01 10:58:56;;;;;;;4.90;4.50;;;;;;;16.39;100.00;101121.91;5037362;28;20041;-48
2023/09/01 11:01:36;;;;;;;4.53;4.13;;;;;;;16.44;100.00;101119.63;5045410;28;20029;-49
2023/09/01 11:04:13;;;;;;;4.65;4.22;;;;;;;16.53;100.00;101115.19;5042111;28;20483;-48
2023/09/01 11:07:00;;;;;;;3.42;3.20;;;;;;;16.58;100.00;101120.94;5039590;28;20521;-49
2023/09/01 11:09:34;;;;;;;3.50;2.97;;;;;;;16.65;100.00;101114.00;5043431;28;20112;-49
2023/09/01 11:12:00;;;;;;;3.92;3.60;;;;;;;16.68;100.00;101107.47;5044404;28;20033;-49